Time;durP1;ratioP1;P1;durP2;ratioP2;P2;SDS_P1;SDS_P2;PMS_P1;PMS_P2;Temp;Humidity;BMP_temperature;BMP_pressure;BME280_temperature;BME280_humidity;BME280_pressure;Samples;Min_cycle;Max_cycle;Signal;HPM_P1;HPM_P2
2022/04/29 00:02:01;;;;;;;6.57;4.90;;;10.80;99.90;;;;;;5208850;28;20113;-70
2022/04/29 00:04:32;;;;;;;7.22;4.43;;;10.60;99.90;;;;;;5208831;28;20129;-71
2022/04/29 00:07:06;;;;;;;6.82;4.55;;;10.60;99.90;;;;;;5208995;28;20060;-70
2022/04/29 00:09:37;;;;;;;9.88;4.72;;;10.50;99.90;;;;;;5208721;28;20083;-70
2022/04/29 00:12:09;;;;;;;9.05;5.10;;;10.50;99.90;;;;;;5208920;28;20041;-70
2022/04/29 00:14:39;;;;;;;6.95;4.72;;;10.70;99.90;;;;;;5208767;28;20083;-71
2022/04/29 00:17:10;;;;;;;6.13;4.25;;;10.60;99.90;;;;;;5208629;28;20033;-70
2022/04/29 00:19:41;;;;;;;7.00;4.68;;;10.40;99.90;;;;;;5208528;28;20366;-70
2022/04/29 00:22:12;;;;;;;6.13;4.32;;;10.10;99.90;;;;;;5208470;28;20104;-71
2022/04/29 00:24:43;;;;;;;7.47;4.22;;;10.20;99.90;;;;;;5208581;28;20037;-70
2022/04/29 00:27:14;;;;;;;7.55;4.70;;;10.30;99.90;;;;;;5207490;28;20522;-70
2022/04/29 00:29:44;;;;;;;8.32;4.57;;;10.30;99.90;;;;;;5208101;28;20116;-71
2022/04/29 00:32:15;;;;;;;8.48;4.65;;;10.30;99.90;;;;;;5208246;28;20381;-71
2022/04/29 00:34:46;;;;;;;8.40;4.63;;;10.00;99.90;;;;;;5223408;28;20021;-70
2022/04/29 00:37:18;;;;;;;7.75;5.50;;;10.10;99.90;;;;;;5208090;28;20385;-71
2022/04/29 00:39:49;;;;;;;10.73;4.57;;;10.40;99.90;;;;;;5208095;28;20446;-70
2022/04/29 00:42:22;;;;;;;6.50;4.65;;;10.10;99.90;;;;;;5207987;28;20028;-71
2022/04/29 00:44:53;;;;;;;11.90;5.30;;;10.20;99.90;;;;;;5208092;28;20037;-70
2022/04/29 00:47:23;;;;;;;7.38;4.47;;;10.40;99.90;;;;;;5207867;28;20135;-71
2022/04/29 00:49:54;;;;;;;6.35;4.60;;;10.50;99.90;;;;;;5207759;28;20029;-71
2022/04/29 00:52:26;;;;;;;8.45;5.40;;;10.40;99.90;;;;;;5207980;28;20367;-70
2022/04/29 00:55:01;;;;;;;8.20;5.38;;;10.20;99.90;;;;;;5207672;28;20041;-71
2022/04/29 00:57:47;;;;;;;9.00;5.55;;;10.40;99.90;;;;;;5207967;28;20489;-70
2022/04/29 01:00:19;;;;;;;7.82;4.88;;;10.30;99.90;;;;;;5207660;28;20096;-71
2022/04/29 01:02:53;;;;;;;11.02;5.63;;;10.70;99.90;;;;;;5207493;28;20057;-71
2022/04/29 01:05:25;;;;;;;8.93;5.20;;;10.60;99.90;;;;;;5207608;28;20022;-70
2022/04/29 01:07:56;;;;;;;7.50;4.45;;;10.50;99.90;;;;;;5207833;28;20033;-71
2022/04/29 01:10:27;;;;;;;12.95;5.03;;;10.30;99.90;;;;;;5207733;28;20033;-71
2022/04/29 01:13:00;;;;;;;8.80;5.82;;;10.30;99.90;;;;;;5207651;28;20040;-71
2022/04/29 01:15:32;;;;;;;10.10;5.00;;;10.20;99.90;;;;;;5207587;28;20014;-72
2022/04/29 01:18:09;;;;;;;8.32;4.93;;;10.20;99.90;;;;;;5207483;28;20124;-70
2022/04/29 01:20:41;;;;;;;8.98;5.15;;;10.20;99.90;;;;;;5207526;28;20021;-70
2022/04/29 01:23:12;;;;;;;6.53;4.80;;;10.20;99.90;;;;;;5207381;28;20108;-70
2022/04/29 01:25:43;;;;;;;7.75;4.88;;;10.30;99.90;;;;;;5207345;28;20013;-71
2022/04/29 01:28:14;;;;;;;7.45;4.95;;;10.30;99.90;;;;;;5207209;28;20051;-71
2022/04/29 01:30:45;;;;;;;8.35;4.97;;;10.40;99.90;;;;;;5207175;28;20037;-70
2022/04/29 01:33:18;;;;;;;11.40;5.47;;;10.40;99.90;;;;;;5207108;28;20083;-70
2022/04/29 01:35:48;;;;;;;17.15;5.53;;;10.50;99.90;;;;;;5207165;28;20029;-71
2022/04/29 01:38:19;;;;;;;10.38;5.70;;;10.40;99.90;;;;;;5207110;28;20083;-71
2022/04/29 01:40:50;;;;;;;11.25;5.65;;;10.90;99.90;;;;;;5207112;28;20028;-71
2022/04/29 01:43:21;;;;;;;10.57;5.30;;;10.90;99.90;;;;;;5206954;28;20408;-71
2022/04/29 01:45:54;;;;;;;9.95;5.90;;;11.00;99.90;;;;;;5206938;28;20025;-70
2022/04/29 01:48:25;;;;;;;8.98;5.93;;;11.10;99.90;;;;;;5206897;28;20366;-70
2022/04/29 01:50:56;;;;;;;9.18;5.60;;;11.00;99.90;;;;;;5206952;28;20033;-70
2022/04/29 01:53:27;;;;;;;9.00;5.22;;;11.20;99.90;;;;;;5206996;28;20373;-71
2022/04/29 01:55:58;;;;;;;8.52;5.13;;;11.30;99.90;;;;;;5206951;28;20028;-71
2022/04/29 01:58:28;;;;;;;6.50;5.15;;;11.30;99.90;;;;;;5206039;28;20047;-70
2022/04/29 02:01:00;;;;;;;8.70;4.85;;;11.40;99.90;;;;;;5207122;28;20493;-71
2022/04/29 02:03:30;;;;;;;9.10;4.80;;;11.40;99.90;;;;;;5206750;28;20028;-71
2022/04/29 02:06:01;;;;;;;7.82;4.93;;;11.40;99.90;;;;;;5206882;28;20029;-71
2022/04/29 02:08:32;;;;;;;4.65;4.00;;;11.40;99.90;;;;;;5206767;28;20034;-73
2022/04/29 02:11:03;;;;;;;8.10;4.28;;;11.50;99.90;;;;;;5206788;28;20034;-70
2022/04/29 02:13:34;;;;;;;8.88;5.07;;;11.50;99.90;;;;;;5206741;28;20037;-70
2022/04/29 02:16:05;;;;;;;5.22;3.90;;;11.50;99.90;;;;;;5206727;28;20523;-71
2022/04/29 02:18:36;;;;;;;6.88;4.20;;;11.60;99.90;;;;;;5206627;28;20032;-71
2022/04/29 02:21:07;;;;;;;8.20;4.00;;;11.70;99.90;;;;;;5206678;28;20025;-70
2022/04/29 02:23:38;;;;;;;8.70;4.32;;;11.50;99.90;;;;;;5206511;28;20080;-70
2022/04/29 02:26:08;;;;;;;4.80;4.00;;;11.60;99.90;;;;;;5206467;28;20033;-70
2022/04/29 02:28:39;;;;;;;7.70;4.00;;;11.50;99.90;;;;;;5206547;28;20385;-71
2022/04/29 02:31:10;;;;;;;9.23;4.13;;;11.50;99.90;;;;;;5206495;28;20501;-70
2022/04/29 02:33:41;;;;;;;10.25;4.70;;;11.60;99.90;;;;;;5206482;28;20104;-71
2022/04/29 02:36:12;;;;;;;9.18;4.30;;;11.50;99.90;;;;;;5206621;28;20049;-70
2022/04/29 02:38:44;;;;;;;7.45;4.15;;;11.60;99.90;;;;;;5206550;28;20461;-71
2022/04/29 02:41:15;;;;;;;8.50;4.30;;;11.50;99.90;;;;;;5206542;28;20013;-72
2022/04/29 02:43:45;;;;;;;7.70;4.05;;;11.50;99.90;;;;;;5206590;28;20109;-70
2022/04/29 02:46:16;;;;;;;6.95;3.60;;;11.50;99.90;;;;;;5206545;28;20029;-70
2022/04/29 02:48:48;;;;;;;7.63;4.13;;;11.50;99.90;;;;;;5206514;28;20104;-71
2022/04/29 02:51:19;;;;;;;6.85;4.30;;;11.50;99.90;;;;;;5206420;28;20033;-71
2022/04/29 02:53:51;;;;;;;6.43;4.10;;;11.40;99.90;;;;;;5206330;28;20047;-70
2022/04/29 02:56:22;;;;;;;6.85;3.97;;;11.60;99.90;;;;;;5206412;28;20060;-70
2022/04/29 02:58:52;;;;;;;5.50;3.40;;;11.60;99.90;;;;;;5206014;28;20117;-70
2022/04/29 03:01:23;;;;;;;7.47;3.88;;;11.70;99.90;;;;;;5206082;28;20050;-70
2022/04/29 03:03:54;;;;;;;6.15;3.67;;;11.60;99.90;;;;;;5206280;28;20022;-70
2022/04/29 03:06:25;;;;;;;11.38;4.00;;;11.70;99.90;;;;;;5206117;28;20056;-71
2022/04/29 03:08:56;;;;;;;7.72;3.58;;;11.60;99.90;;;;;;5206648;28;20052;-72
2022/04/29 03:11:27;;;;;;;8.07;3.65;;;11.50;99.90;;;;;;5209856;28;20064;-70
2022/04/29 03:13:58;;;;;;;7.05;3.85;;;11.70;99.90;;;;;;5209865;28;20049;-70
2022/04/29 03:16:29;;;;;;;5.85;3.72;;;11.30;99.90;;;;;;5209706;28;20442;-72
2022/04/29 03:19:00;;;;;;;10.32;3.92;;;11.50;99.90;;;;;;5209701;28;20029;-70
2022/04/29 03:21:33;;;;;;;7.75;4.63;;;11.40;99.90;;;;;;5209649;28;20023;-69
2022/04/29 03:24:04;;;;;;;5.00;3.90;;;11.40;99.90;;;;;;5209723;28;20109;-71
2022/04/29 03:26:35;;;;;;;7.13;3.83;;;11.50;99.90;;;;;;5209616;28;20072;-71
2022/04/29 03:29:06;;;;;;;6.47;4.47;;;11.50;99.90;;;;;;5209522;28;20017;-72
2022/04/29 03:31:37;;;;;;;9.52;4.57;;;11.40;99.90;;;;;;5209726;28;20103;-70
2022/04/29 03:34:08;;;;;;;6.65;4.03;;;11.50;99.90;;;;;;5209371;28;20033;-72
2022/04/29 03:36:39;;;;;;;6.68;4.57;;;11.60;99.90;;;;;;5209509;28;20378;-70
2022/04/29 03:39:09;;;;;;;10.85;4.45;;;11.50;99.90;;;;;;5208062;28;20029;-71
2022/04/29 03:41:40;;;;;;;7.07;4.10;;;11.60;99.90;;;;;;5209269;28;20021;-70
2022/04/29 03:44:11;;;;;;;7.15;4.68;;;11.60;99.90;;;;;;5209387;28;20053;-69
2022/04/29 03:46:42;;;;;;;6.40;4.25;;;11.60;99.90;;;;;;5209292;28;20017;-73
2022/04/29 03:52:03;;;;;;;12.50;6.57;;;11.80;99.90;;;;;;5209261;28;20179;-71
2022/04/29 03:54:34;;;;;;;10.65;5.00;;;11.90;99.90;;;;;;5209084;28;20010;-69
2022/04/29 03:57:05;;;;;;;10.43;5.60;;;12.00;99.90;;;;;;5209019;28;20036;-70
2022/04/29 03:59:36;;;;;;;7.15;4.47;;;12.00;99.90;;;;;;5208574;28;20046;-73
2022/04/29 04:02:06;;;;;;;9.18;4.90;;;12.30;99.90;;;;;;5207793;28;20037;-71
2022/04/29 04:04:37;;;;;;;7.85;4.40;;;12.30;99.90;;;;;;5209043;28;20022;-73
2022/04/29 04:07:08;;;;;;;9.13;4.43;;;12.30;99.90;;;;;;5208869;28;20033;-70
2022/04/29 04:09:39;;;;;;;7.57;5.03;;;12.60;99.90;;;;;;5224164;28;20024;-71
2022/04/29 04:12:10;;;;;;;6.38;4.97;;;12.40;99.90;;;;;;5208827;28;20099;-70
2022/04/29 04:14:41;;;;;;;8.05;5.20;;;12.60;99.90;;;;;;5208645;28;20029;-70
2022/04/29 04:17:12;;;;;;;7.95;4.80;;;12.40;99.90;;;;;;5208647;28;20037;-70
2022/04/29 04:19:43;;;;;;;8.95;4.68;;;12.40;99.90;;;;;;5208265;28;20393;-71
2022/04/29 04:22:14;;;;;;;7.85;5.13;;;12.60;99.90;;;;;;5208582;28;20060;-70
2022/04/29 04:24:45;;;;;;;7.65;5.30;;;12.70;99.90;;;;;;5208619;28;20052;-71
2022/04/29 04:27:15;;;;;;;8.25;6.00;;;12.90;99.90;;;;;;5208606;28;20410;-70
2022/04/29 04:29:46;;;;;;;12.07;6.70;;;12.90;99.90;;;;;;5208257;28;20034;-71
2022/04/29 04:32:17;;;;;;;10.57;6.35;;;12.90;99.90;;;;;;5208475;28;20469;-70
2022/04/29 04:34:51;;;;;;;13.50;6.63;;;13.00;99.90;;;;;;5208093;28;20076;-73
2022/04/29 04:37:23;;;;;;;9.07;6.30;;;13.10;99.90;;;;;;5208332;28;20730;-70
2022/04/29 04:39:58;;;;;;;8.77;6.43;;;13.20;99.90;;;;;;5208153;28;20087;-70
2022/04/29 04:42:29;;;;;;;9.18;6.80;;;13.30;99.90;;;;;;5208198;28;20030;-73
2022/04/29 04:44:59;;;;;;;8.93;6.85;;;13.30;99.90;;;;;;5208067;28;20032;-72
2022/04/29 04:47:30;;;;;;;13.27;7.55;;;13.40;99.90;;;;;;5208113;28;20057;-71
2022/04/29 04:50:01;;;;;;;14.50;6.40;;;13.40;99.90;;;;;;5208113;28;20081;-73
2022/04/29 04:52:32;;;;;;;8.82;6.00;;;13.60;99.90;;;;;;5208004;28;20022;-71
2022/04/29 04:55:06;;;;;;;8.75;5.90;;;13.60;99.90;;;;;;5207718;28;20136;-72
2022/04/29 04:57:38;;;;;;;12.20;6.47;;;13.70;99.90;;;;;;5207900;28;20026;-71
2022/04/29 05:00:09;;;;;;;8.05;5.15;;;13.80;99.90;;;;;;5207399;28;20052;-71
2022/04/29 05:02:41;;;;;;;10.00;5.50;;;13.90;99.90;;;;;;5207791;28;20029;-71
2022/04/29 05:05:12;;;;;;;11.10;5.88;;;14.00;99.90;;;;;;5207708;28;20405;-70
2022/04/29 05:07:42;;;;;;;8.02;5.47;;;14.00;99.90;;;;;;5207797;28;20075;-70
2022/04/29 05:10:13;;;;;;;7.80;5.43;;;14.00;99.90;;;;;;5207717;28;20036;-71
2022/04/29 05:12:46;;;;;;;7.60;5.47;;;14.30;99.90;;;;;;5207708;28;20032;-71
2022/04/29 05:15:17;;;;;;;8.10;5.20;;;14.40;99.90;;;;;;5207324;28;20155;-70
2022/04/29 05:17:48;;;;;;;9.93;4.78;;;14.40;99.90;;;;;;5207324;28;20030;-73
2022/04/29 05:20:19;;;;;;;9.02;5.22;;;14.30;99.90;;;;;;5207667;28;20028;-71
2022/04/29 05:22:50;;;;;;;6.60;4.53;;;14.40;99.90;;;;;;5207459;28;20037;-72
2022/04/29 05:25:20;;;;;;;7.30;4.97;;;14.40;99.90;;;;;;5207266;28;20017;-71
2022/04/29 05:27:51;;;;;;;8.80;4.78;;;14.60;99.90;;;;;;5207371;28;20018;-70
2022/04/29 05:30:22;;;;;;;7.40;4.57;;;14.70;99.90;;;;;;5207396;28;20041;-71
2022/04/29 05:32:53;;;;;;;10.02;3.85;;;14.60;99.90;;;;;;5206476;28;20147;-71
2022/04/29 05:35:24;;;;;;;7.88;4.35;;;14.50;99.90;;;;;;5207122;28;20026;-70
2022/04/29 05:37:55;;;;;;;8.85;5.07;;;14.80;99.90;;;;;;5206974;28;20033;-70
2022/04/29 05:43:16;;;;;;;8.57;3.80;;;14.90;99.90;;;;;;5207139;28;20017;-72
2022/04/29 05:45:47;;;;;;;12.23;4.65;;;14.50;99.90;;;;;;5206789;28;20473;-73
2022/04/29 05:48:17;;;;;;;8.48;4.10;;;14.80;99.90;;;;;;5205524;28;20033;-71
2022/04/29 05:50:48;;;;;;;7.25;4.45;;;15.00;99.90;;;;;;5207372;28;20068;-72
2022/04/29 05:53:19;;;;;;;7.88;4.70;;;15.00;99.90;;;;;;5206940;28;20634;-71
2022/04/29 05:55:50;;;;;;;9.43;4.65;;;14.80;99.90;;;;;;5207096;28;20029;-70
2022/04/29 05:58:21;;;;;;;9.35;4.93;;;15.00;99.90;;;;;;5206812;28;20347;-71
2022/04/29 06:00:52;;;;;;;8.05;3.95;;;15.10;99.90;;;;;;5206812;28;20042;-69
2022/04/29 06:03:25;;;;;;;9.43;4.45;;;15.00;99.90;;;;;;5206526;28;20042;-70
2022/04/29 06:05:56;;;;;;;7.57;4.18;;;15.50;99.90;;;;;;5206539;28;20108;-73
2022/04/29 06:08:27;;;;;;;7.50;4.10;;;15.20;99.90;;;;;;5206889;28;20545;-70
2022/04/29 06:10:57;;;;;;;9.40;4.40;;;15.40;99.90;;;;;;5206756;28;20045;-72
2022/04/29 06:13:28;;;;;;;8.48;4.50;;;15.40;99.90;;;;;;5206727;28;20025;-71
2022/04/29 06:15:59;;;;;;;9.88;4.35;;;15.40;99.90;;;;;;5206683;28;20037;-70
2022/04/29 06:18:32;;;;;;;6.63;4.38;;;15.50;99.90;;;;;;5206766;28;20025;-72
2022/04/29 06:21:03;;;;;;;9.00;4.55;;;15.50;99.90;;;;;;5206953;28;20366;-73
2022/04/29 06:23:34;;;;;;;7.75;4.70;;;15.70;99.90;;;;;;5206668;28;20017;-71
2022/04/29 06:26:05;;;;;;;6.55;4.47;;;15.90;99.90;;;;;;5206610;28;20029;-72
2022/04/29 06:28:36;;;;;;;8.32;4.38;;;15.40;99.90;;;;;;5206642;28;20036;-71
2022/04/29 06:31:07;;;;;;;7.40;4.15;;;15.40;99.90;;;;;;5206451;28;20041;-72
2022/04/29 06:33:40;;;;;;;7.35;4.80;;;15.40;99.90;;;;;;5206235;28;20029;-71
2022/04/29 06:36:12;;;;;;;7.47;4.03;;;15.90;99.90;;;;;;5206318;28;20099;-72
2022/04/29 06:38:42;;;;;;;9.63;4.65;;;15.70;99.90;;;;;;5206655;28;20397;-71
2022/04/29 06:41:13;;;;;;;7.88;4.32;;;15.50;99.90;;;;;;5206526;28;20040;-71
2022/04/29 06:43:45;;;;;;;5.78;4.10;;;15.50;99.90;;;;;;5208290;28;20492;-71
2022/04/29 06:46:15;;;;;;;5.78;4.07;;;15.80;99.90;;;;;;5210505;28;20083;-71
2022/04/29 06:48:48;;;;;;;14.68;4.63;;;15.60;99.90;;;;;;5210338;28;20017;-71
2022/04/29 06:51:19;;;;;;;7.38;4.65;;;15.80;99.90;;;;;;5210253;28;20069;-73
2022/04/29 06:53:49;;;;;;;7.82;4.80;;;16.00;99.90;;;;;;5210081;28;20056;-71
2022/04/29 06:56:20;;;;;;;7.13;4.35;;;16.20;99.90;;;;;;5210666;28;20033;-71
2022/04/29 06:58:51;;;;;;;8.63;5.20;;;16.30;99.90;;;;;;5210655;28;20047;-74
2022/04/29 07:01:22;;;;;;;7.90;5.18;;;16.10;99.90;;;;;;5209801;28;20033;-70
2022/04/29 07:03:53;;;;;;;7.22;5.53;;;16.20;99.90;;;;;;5209871;28;20029;-71
2022/04/29 07:06:24;;;;;;;8.77;4.82;;;16.10;99.90;;;;;;5210094;28;20029;-70
2022/04/29 07:08:54;;;;;;;7.82;5.07;;;16.30;99.90;;;;;;5210160;28;20083;-74
2022/04/29 07:11:25;;;;;;;7.10;5.07;;;;;;;;;;5209940;28;20550;-72
2022/04/29 07:13:57;;;;;;;9.40;5.15;;;16.40;99.90;;;;;;5209734;28;20029;-72
2022/04/29 07:16:28;;;;;;;9.15;5.38;;;16.40;99.90;;;;;;5209324;28;20036;-71
2022/04/29 07:18:59;;;;;;;9.43;5.88;;;16.40;99.90;;;;;;5209255;28;20030;-73
2022/04/29 07:21:29;;;;;;;10.98;5.55;;;16.70;99.90;;;;;;5209338;28;20032;-73
2022/04/29 07:24:00;;;;;;;7.90;5.30;;;16.90;99.90;;;;;;5209372;28;20423;-73
2022/04/29 07:26:31;;;;;;;9.60;5.82;;;16.80;99.90;;;;;;5209180;28;20025;-74
2022/04/29 07:29:02;;;;;;;8.35;5.95;;;16.70;99.90;;;;;;5209105;28;20025;-75
2022/04/29 07:31:34;;;;;;;7.93;5.85;;;16.60;99.90;;;;;;5209042;28;20474;-75
2022/04/29 07:34:05;;;;;;;8.45;5.78;;;16.90;99.90;;;;;;5208978;28;20044;-74
2022/04/29 07:42:35;;;;;;;7.00;4.70;;;17.20;99.90;;;;;;5207254;28;20040;-71
2022/04/29 07:45:06;;;;;;;6.35;4.30;;;17.40;99.90;;;;;;5204558;28;20034;-72
2022/04/29 07:47:37;;;;;;;5.90;4.07;;;17.50;99.90;;;;;;5209032;28;20099;-71
2022/04/29 07:50:08;;;;;;;7.53;4.10;;;16.70;99.90;;;;;;5209071;28;20033;-72
2022/04/29 07:52:39;;;;;;;7.72;4.57;;;17.20;99.90;;;;;;5212565;28;20037;-71
2022/04/29 07:55:10;;;;;;;4.78;3.95;;;17.60;99.90;;;;;;5208059;28;20025;-70
2022/04/29 07:57:41;;;;;;;5.47;4.20;;;17.50;99.90;;;;;;5208909;28;20083;-71
2022/04/29 08:00:13;;;;;;;4.45;3.78;;;17.20;99.90;;;;;;5208817;28;20390;-73
2022/04/29 08:02:44;;;;;;;7.43;4.60;;;17.60;99.90;;;;;;5209199;28;20030;-71
2022/04/29 08:05:15;;;;;;;5.68;3.70;;;17.10;99.90;;;;;;5208984;28;20079;-71
2022/04/29 08:07:47;;;;;;;5.85;3.88;;;17.60;99.90;;;;;;5208982;28;20528;-72
2022/04/29 08:10:18;;;;;;;5.57;4.18;;;18.10;99.90;;;;;;5208806;28;20037;-71
2022/04/29 08:12:49;;;;;;;4.53;3.55;;;17.40;99.90;;;;;;5208479;28;20029;-71
2022/04/29 08:15:20;;;;;;;5.32;3.65;;;17.60;99.90;;;;;;5208742;28;20115;-72
2022/04/29 08:17:50;;;;;;;5.50;3.42;;;17.40;99.90;;;;;;5208767;28;20029;-71
2022/04/29 08:20:23;;;;;;;7.13;3.92;;;17.50;99.90;;;;;;5208716;28;20032;-71
2022/04/29 08:22:53;;;;;;;5.93;3.72;;;17.40;99.90;;;;;;5208116;28;20112;-71
2022/04/29 08:25:24;;;;;;;4.35;3.33;;;17.60;99.90;;;;;;5206835;28;20154;-71
2022/04/29 08:27:55;;;;;;;6.43;4.18;;;18.20;99.90;;;;;;5219967;28;20063;-72
2022/04/29 08:30:29;;;;;;;6.40;3.53;;;17.50;99.90;;;;;;5227351;28;20108;-72
2022/04/29 08:33:00;;;;;;;6.85;3.35;;;17.90;99.90;;;;;;5217045;28;20044;-74
2022/04/29 08:35:31;;;;;;;8.98;4.00;;;18.10;99.90;;;;;;5220010;28;20012;-71
2022/04/29 08:38:02;;;;;;;4.95;3.50;;;18.00;99.90;;;;;;5218877;28;20033;-76
2022/04/29 08:40:33;;;;;;;6.72;3.72;;;17.90;99.90;;;;;;5208039;28;20022;-72
2022/04/29 08:43:04;;;;;;;6.03;3.30;;;18.00;99.90;;;;;;5207491;28;20061;-71
2022/04/29 08:45:37;;;;;;;4.85;3.47;;;17.80;99.90;;;;;;5217436;28;20123;-75
2022/04/29 08:48:09;;;;;;;5.20;3.15;;;18.10;99.90;;;;;;5220313;28;20025;-70
2022/04/29 08:50:40;;;;;;;5.70;3.00;;;18.60;99.90;;;;;;5221590;28;20029;-74
2022/04/29 08:53:10;;;;;;;4.75;3.47;;;18.70;99.90;;;;;;5213247;28;20037;-73
2022/04/29 08:58:36;;;;;;;4.93;3.53;;;18.60;99.90;;;;;;5227605;28;20024;-71
2022/04/29 09:01:20;;;;;;;6.97;3.30;;;18.30;99.90;;;;;;5228453;28;20373;-70
2022/04/29 09:03:51;;;;;;;5.68;3.53;;;18.70;99.90;;;;;;5215368;28;20030;-72
2022/04/29 09:06:22;;;;;;;5.90;3.60;;;17.90;99.90;;;;;;5207092;28;20040;-73
2022/04/29 09:09:05;;;;;;;6.28;3.60;;;17.90;99.90;;;;;;5207589;28;20339;-76
2022/04/29 09:11:36;;;;;;;5.78;3.88;;;18.00;99.90;;;;;;5207714;28;20037;-71
2022/04/29 09:14:24;;;;;;;7.25;3.80;;;18.60;99.90;;;;;;5207468;28;20118;-70
2022/04/29 09:16:55;;;;;;;7.53;3.20;;;18.30;99.90;;;;;;5207521;28;20462;-72
2022/04/29 09:19:35;;;;;;;6.30;2.80;;;18.20;99.90;;;;;;5207718;28;20037;-72
2022/04/29 09:22:09;;;;;;;3.97;2.83;;;18.10;99.90;;;;;;5207602;28;20076;-72
2022/04/29 09:24:40;;;;;;;8.32;3.60;;;18.20;99.90;;;;;;5207458;28;20086;-70
2022/04/29 09:27:11;;;;;;;6.95;3.20;;;18.20;99.90;;;;;;5207541;28;20021;-70
2022/04/29 09:29:42;;;;;;;5.22;2.75;;;18.30;99.90;;;;;;5207392;28;20021;-71
2022/04/29 09:32:13;;;;;;;4.25;2.72;;;18.30;99.90;;;;;;5207101;28;20485;-71
2022/04/29 09:34:54;;;;;;;7.68;3.35;;;18.30;99.90;;;;;;5207184;28;20037;-74
2022/04/29 09:37:26;;;;;;;5.22;3.10;;;18.20;99.90;;;;;;5206287;28;20031;-72
2022/04/29 09:40:00;;;;;;;4.78;3.42;;;18.60;99.90;;;;;;5206622;28;20033;-77
2022/04/29 09:42:42;;;;;;;5.70;3.63;;;18.30;99.90;;;;;;5206583;28;20029;-75
2022/04/29 09:45:24;;;;;;;7.10;3.35;;;18.10;99.90;;;;;;5206584;28;20025;-74
2022/04/29 09:47:58;;;;;;;5.43;2.90;;;18.50;99.90;;;;;;5206451;28;20028;-72
2022/04/29 09:50:48;;;;;;;5.70;3.28;;;18.40;99.90;;;;;;5206614;28;20029;-76
2022/04/29 09:53:21;;;;;;;6.57;3.85;;;18.10;99.90;;;;;;5206773;28;20038;-75
2022/04/29 09:56:04;;;;;;;5.50;3.42;;;18.10;99.90;;;;;;5207007;28;20025;-73
2022/04/29 09:58:35;;;;;;;5.25;3.42;;;18.30;99.90;;;;;;5206665;28;20120;-76
2022/04/29 10:01:08;;;;;;;5.63;3.63;;;18.20;99.90;;;;;;5206775;28;20025;-73
2022/04/29 10:03:38;;;;;;;6.65;3.67;;;18.30;99.90;;;;;;5206931;28;20056;-79
2022/04/29 10:06:12;;;;;;;5.70;3.08;;;18.60;99.90;;;;;;5206767;28;20068;-72
2022/04/29 10:08:44;;;;;;;8.45;4.13;;;18.80;99.90;;;;;;5206828;28;20132;-75
2022/04/29 10:11:17;;;;;;;6.22;3.85;;;18.90;99.90;;;;;;5206567;28;20111;-73
2022/04/29 10:13:51;;;;;;;8.57;4.38;;;18.70;99.90;;;;;;5206535;28;20068;-75
2022/04/29 10:16:23;;;;;;;8.15;4.45;;;18.70;99.90;;;;;;5206368;28;20354;-74
2022/04/29 10:21:56;;;;;;;6.50;4.40;;;18.10;99.90;;;;;;5211319;28;20512;-73
2022/04/29 10:24:29;;;;;;;9.90;4.80;;;19.00;99.90;;;;;;5210851;28;20022;-74
2022/04/29 10:27:00;;;;;;;8.18;3.95;;;18.60;99.90;;;;;;5210861;28;20052;-73
2022/04/29 10:29:31;;;;;;;7.88;3.92;;;18.40;99.90;;;;;;5210688;28;20068;-72
2022/04/29 10:32:10;;;;;;;6.43;3.75;;;18.10;99.90;;;;;;5210770;28;20041;-77
2022/04/29 10:34:40;;;;;;;5.57;3.33;;;18.20;99.90;;;;;;5210620;28;20365;-73
2022/04/29 10:37:13;;;;;;;4.60;3.00;;;18.50;99.90;;;;;;5210736;28;20040;-75
2022/04/29 10:40:10;;;;;;;4.80;3.20;;;18.90;99.90;;;;;;5210775;28;20083;-74
2022/04/29 10:43:05;;;;;;;4.75;3.03;;;18.10;99.90;;;;;;5210592;28;20100;-76
2022/04/29 10:45:57;;;;;;;4.15;2.70;;;17.90;99.90;;;;;;5210473;28;20033;-71
2022/04/29 10:48:36;;;;;;;8.77;3.25;;;18.00;99.90;;;;;;5210389;28;20029;-79
2022/04/29 10:51:17;;;;;;;5.68;2.92;;;18.10;99.90;;;;;;5210547;28;20065;-77
2022/04/29 10:53:51;;;;;;;9.30;2.88;;;18.70;99.90;;;;;;5210510;28;20023;-73
2022/04/29 10:56:31;;;;;;;6.82;2.60;;;18.80;99.90;;;;;;5210309;28;20025;-74
2022/04/29 10:59:07;;;;;;;3.00;2.17;;;19.20;99.90;;;;;;5210085;28;20130;-76
2022/04/29 11:01:40;;;;;;;5.40;2.15;;;18.60;99.90;;;;;;5210251;28;20377;-76
2022/04/29 11:04:17;;;;;;;7.18;2.80;;;18.50;99.90;;;;;;5210256;28;20026;-77
2022/04/29 11:06:48;;;;;;;5.20;2.70;;;17.90;99.90;;;;;;5210206;28;20029;-76
2022/04/29 11:09:35;;;;;;;5.00;2.95;;;17.50;99.90;;;;;;5210092;28;20066;-74
2022/04/29 11:12:27;;;;;;;3.80;2.50;;;17.40;99.90;;;;;;5210050;28;20473;-74
2022/04/29 11:15:14;;;;;;;6.00;2.95;;;17.80;99.90;;;;;;5209658;28;20030;-74
2022/04/29 11:17:45;;;;;;;6.45;3.00;;;18.10;99.90;;;;;;5209587;28;20061;-75
2022/04/29 11:20:23;;;;;;;5.45;2.28;;;18.60;99.90;;;;;;5209855;28;20112;-74
2022/04/29 11:26:00;;;;;;;3.33;2.05;;;18.90;99.90;;;;;;5209490;28;20212;-74
2022/04/29 11:28:31;;;;;;;4.28;2.20;;;19.10;99.90;;;;;;5208357;28;20040;-73
2022/04/29 11:31:07;;;;;;;3.53;2.35;;;18.60;99.90;;;;;;5188898;28;20042;-72
2022/04/29 11:33:38;;;;;;;5.00;2.50;;;18.70;99.90;;;;;;5205009;28;20025;-73
2022/04/29 11:36:12;;;;;;;5.07;2.35;;;19.00;99.90;;;;;;5209616;28;20465;-78
2022/04/29 11:38:44;;;;;;;5.38;2.40;;;18.80;99.90;;;;;;5191831;28;20033;-74
2022/04/29 11:41:27;;;;;;;12.35;3.60;;;18.40;99.90;;;;;;5188972;28;20362;-72
2022/04/29 11:43:58;;;;;;;6.13;3.00;;;18.90;99.90;;;;;;5189129;28;20029;-73
2022/04/29 11:46:29;;;;;;;5.65;2.38;;;18.70;99.90;;;;;;5188511;28;20373;-72
2022/04/29 11:49:00;;;;;;;5.57;2.53;;;18.60;99.90;;;;;;5188858;28;20109;-75
2022/04/29 11:51:31;;;;;;;5.30;2.67;;;18.40;99.90;;;;;;5188619;28;20037;-75
2022/04/29 11:54:04;;;;;;;5.50;2.55;;;18.50;99.90;;;;;;5188851;28;20065;-73
2022/04/29 11:56:37;;;;;;;4.32;2.30;;;19.00;99.90;;;;;;5188824;28;20037;-74
2022/04/29 11:59:09;;;;;;;4.63;2.40;;;18.10;99.90;;;;;;5188302;28;20081;-73
2022/04/29 12:01:40;;;;;;;4.13;2.50;;;18.20;99.90;;;;;;5188688;28;20477;-73
2022/04/29 12:04:13;;;;;;;3.95;2.30;;;18.00;99.90;;;;;;5188475;28;20033;-72
2022/04/29 12:06:57;;;;;;;4.93;2.35;;;18.20;99.90;;;;;;5203539;28;20018;-73
2022/04/29 12:09:34;;;;;;;3.78;2.67;;;18.00;99.90;;;;;;5188645;28;20032;-73
2022/04/29 12:12:29;;;;;;;8.70;2.67;;;18.50;99.90;;;;;;5188362;28;20125;-73
2022/04/29 12:15:00;;;;;;;6.20;2.75;;;18.40;99.90;;;;;;5188553;28;20088;-73
2022/04/29 12:17:40;;;;;;;3.25;2.13;;;18.90;99.90;;;;;;5188419;28;20413;-74
2022/04/29 12:20:19;;;;;;;5.30;2.33;;;18.60;99.90;;;;;;5188370;28;20029;-73
2022/04/29 12:22:52;;;;;;;6.00;2.60;;;18.70;99.90;;;;;;5188561;28;20057;-74
2022/04/29 12:25:45;;;;;;;5.82;2.70;;;18.80;99.90;;;;;;5188159;28;20029;-75
2022/04/29 12:28:20;;;;;;;5.78;2.35;;;18.90;99.90;;;;;;5145684;28;20046;-72
2022/04/29 12:36:47;;;;;;;2.63;2.05;;;19.40;99.90;;;;;;5145900;28;20070;-73
2022/04/29 12:39:21;;;;;;;5.78;2.65;;;18.80;99.90;;;;;;5145643;28;20031;-73
2022/04/29 12:41:59;;;;;;;6.10;2.53;;;18.80;99.90;;;;;;5145215;28;20023;-75
2022/04/29 12:47:41;;;;;;;8.90;2.50;;;18.70;99.90;;;;;;5145591;28;20122;-74
2022/04/29 12:50:36;;;;;;;9.05;2.60;;;18.80;99.90;;;;;;5145154;28;20031;-75
2022/04/29 12:53:09;;;;;;;6.90;2.65;;;18.80;99.90;;;;;;5145256;28;20074;-73
2022/04/29 12:55:42;;;;;;;5.32;3.50;;;18.50;99.90;;;;;;5145101;28;20023;-72
2022/04/29 12:58:17;;;;;;;5.57;2.42;;;18.00;99.90;;;;;;5144960;28;20043;-79
2022/04/29 13:00:56;;;;;;;5.13;2.22;;;18.30;99.90;;;;;;5145053;28;20043;-72
2022/04/29 13:03:31;;;;;;;7.10;2.63;;;18.00;99.90;;;;;;5145045;28;20125;-73
2022/04/29 13:06:03;;;;;;;4.95;2.65;;;18.30;99.90;;;;;;5178479;28;20053;-73
2022/04/29 13:08:37;;;;;;;7.15;2.22;;;18.70;99.90;;;;;;5187432;28;20132;-73
2022/04/29 13:11:15;;;;;;;6.75;2.20;;;17.80;99.90;;;;;;5187417;28;20032;-73
2022/04/29 13:13:46;;;;;;;6.22;2.35;;;18.10;99.90;;;;;;5187158;28;20083;-73
2022/04/29 13:16:19;;;;;;;5.28;2.45;;;18.20;99.90;;;;;;5187323;28;20049;-76
2022/04/29 13:18:50;;;;;;;4.57;2.30;;;18.50;99.90;;;;;;5186092;28;20040;-73
2022/04/29 13:21:21;;;;;;;6.68;2.50;;;18.20;99.90;;;;;;5185958;28;20057;-72
2022/04/29 13:23:52;;;;;;;7.93;2.90;;;18.30;99.90;;;;;;5187213;28;20034;-73
2022/04/29 13:26:23;;;;;;;5.47;2.38;;;18.10;99.90;;;;;;5187173;28;20093;-72
2022/04/29 13:28:54;;;;;;;9.27;3.40;;;18.40;99.90;;;;;;5186969;28;20080;-72
2022/04/29 13:31:25;;;;;;;8.23;2.30;;;18.30;99.90;;;;;;5187001;28;20107;-74
2022/04/29 13:33:55;;;;;;;5.00;2.75;;;18.00;99.90;;;;;;5186822;28;20033;-73
2022/04/29 13:36:26;;;;;;;8.35;2.67;;;18.80;99.90;;;;;;5186567;28;20032;-74
2022/04/29 13:38:57;;;;;;;9.05;2.85;;;18.30;99.90;;;;;;5186372;28;20147;-74
2022/04/29 13:41:28;;;;;;;5.50;2.83;;;18.20;99.90;;;;;;5186668;28;20114;-73
2022/04/29 13:43:59;;;;;;;8.80;2.72;;;18.10;99.90;;;;;;5186803;28;20057;-73